Latest Weather Observations for Marion Reef

IDQ60801

Issued at 11:52 pm EST Monday 19 November 2018 (issued every 10 minutes, with the page automatically refreshed every 10 minutes)

About weather observations | Map of weather stations | Latest weather observations for QLD | Other Formats
Station Details ID: 200704 Name: MARION REEF Lat: -19.10 Lon: 152.39 Height: 2.0 m
Data from the previous 72 hours. | See also: Recent months for locations in Queensland
Date/Time
EST
Temp
°C
App
Temp
°C
Dew
Point
°C
Rel
Hum
%
Delta-T
°C
Wind Press
QNH
hPa
Press
MSL
hPa
Rain since
9am
mm
Dir  Spd
km/h
Gust
km/h
Spd
kts
Gust
kts
19/11:30pm 25.0 - - - - E 37 43 20 23 1014.3 - -
19/11:00pm 24.8 - - - - E 35 43 19 23 1014.6 1014.4 -
19/10:30pm 25.2 - - - - ESE 35 41 19 22 1014.7 - -
19/10:00pm 25.4 - - - - E 37 44 20 24 1014.8 1014.7 -
19/09:30pm 25.5 - - - - E 33 41 18 22 1014.7 - -
19/09:00pm 25.4 - - - - ESE 35 39 19 21 1014.6 1014.5 -
19/08:30pm 25.3 - - - - E 32 37 17 20 1014.4 - -
19/08:00pm 26.0 - - - - E 32 35 17 19 1014.1 1014.1 -
19/07:30pm 25.6 - - - - ESE 30 35 16 19 1013.8 - -
19/07:00pm 25.7 - - - - SE 26 30 14 16 1013.6 1013.5 -
19/06:30pm 25.4 - - - - SE 28 33 15 18 1013.3 - -
19/06:00pm 25.5 - - - - SE 28 32 15 17 1013.0 1012.9 -
19/05:30pm 25.4 - - - - SE 26 32 14 17 1012.7 - -
19/05:00pm 25.2 - - - - SE 26 32 14 17 1012.4 1012.4 -
19/04:30pm 25.1 - - - - ESE 24 30 13 16 1012.3 - -
19/04:00pm 24.4 - - - - ESE 17 20 9 11 1012.2 1012.0 -
19/03:40pm 23.4 - - - - E 19 33 10 18 1012.2 - -
19/03:30pm 23.6 - - - - SE 37 48 20 26 1012.4 - -
19/03:13pm 25.6 - - - - SE 30 50 16 27 1012.2 - -
19/03:00pm 25.4 - - - - SE 26 30 14 16 1012.2 1012.1 -
19/02:30pm 25.4 - - - - ESE 24 28 13 15 1012.1 - -
19/02:00pm 25.6 - - - - ESE 26 30 14 16 1012.4 1012.3 -
19/01:30pm 25.6 - - - - SE 26 30 14 16 1012.5 - -
19/01:00pm 25.7 - - - - SE 22 28 12 15 1012.6 1012.5 -
19/12:30pm 25.7 - - - - ESE 22 28 12 15 1012.8 - -
19/12:00pm 25.7 - - - - ESE 24 30 13 16 1013.0 1012.9 -
19/11:30am 25.5 - - - - ESE 26 30 14 16 1013.1 - -
19/11:00am 25.7 - - - - SE 24 30 13 16 1013.3 1013.2 -
19/10:30am 25.4 - - - - SE 26 30 14 16 1013.7 - -
19/10:00am 25.8 - - - - SE 24 28 13 15 1013.9 1013.8 -
19/09:30am 25.6 - - - - ESE 26 30 14 16 1014.0 - -
19/09:00am 25.4 - - - - SE 26 32 14 17 1014.0 1013.9 -
19/08:30am 25.5 - - - - ESE 30 33 16 18 1013.8 - -
19/08:00am 25.4 - - - - ESE 30 33 16 18 1013.9 1013.7 -
19/07:30am 25.6 - - - - ESE 28 33 15 18 1013.9 - -
19/07:00am 25.4 - - - - ESE 30 35 16 19 1013.6 1013.6 -
19/06:30am 25.2 - - - - ESE 32 35 17 19 1013.4 - -
19/06:00am 25.5 - - - - ESE 28 35 15 19 1013.2 1013.2 -
19/05:30am 25.0 - - - - ESE 30 33 16 18 1013.0 - -
19/05:00am 25.1 - - - - E 28 33 15 18 1012.7 1012.6 -
19/04:30am 25.1 - - - - E 30 33 16 18 1012.4 - -
19/04:00am 25.6 - - - - E 28 33 15 18 1012.2 1012.2 -
19/03:30am 25.2 - - - - E 30 35 16 19 1012.2 - -
19/03:00am 25.0 - - - - E 30 33 16 18 1012.3 1012.2 -
19/02:30am 25.4 - - - - E 32 37 17 20 1012.3 - -
19/02:00am 25.0 - - - - E 30 33 16 18 1012.4 1012.2 -
19/01:30am 25.0 - - - - E 32 37 17 20 1012.4 - -
19/01:00am 25.4 - - - - E 32 35 17 19 1012.6 1012.5 -
19/12:30am 25.0 - - - - E 33 39 18 21 1013.0 - -
19/12:00am 25.3 - - - - E 35 41 19 22 1013.3 1013.2 -
 
Date/Time
EST
Temp
°C
App
Temp
°C
Dew
Point
°C
Rel
Hum
%
Delta-T
°C
Wind Press
QNH
hPa
Press
MSL
hPa
Rain since
9am
mm
Dir  Spd
km/h
Gust
km/h
Spd
kts
Gust
kts
18/11:30pm 25.3 - - - - E 33 39 18 21 1013.5 - -
18/11:00pm 25.1 - - - - E 37 44 20 24 1013.7 1013.6 -
18/10:30pm 25.4 - - - - E 35 41 19 22 1013.8 - -
18/10:00pm 25.5 - - - - E 35 43 19 23 1013.9 1013.7 -
18/09:30pm 25.7 - - - - ESE 35 41 19 22 1013.8 - -
18/09:00pm 25.7 - - - - ESE 33 39 18 21 1013.7 1013.5 -
18/08:30pm 25.4 - - - - ESE 32 37 17 20 1013.5 - -
18/08:00pm 25.5 - - - - SE 33 37 18 20 1013.4 1013.3 -
18/07:30pm 25.7 - - - - SE 32 35 17 19 1013.1 - -
18/07:00pm 25.7 - - - - ESE 32 39 17 21 1012.9 1012.8 -
18/06:30pm 25.8 - - - - SE 30 35 16 19 1012.7 - -
18/06:00pm 25.7 - - - - SE 32 35 17 19 1012.4 1012.4 -
18/05:30pm 25.7 - - - - SE 33 39 18 21 1012.1 - -
18/05:00pm 25.9 - - - - SE 30 35 16 19 1011.9 1011.8 -
18/04:30pm 25.6 - - - - SE 30 35 16 19 1011.9 - -
18/04:00pm 25.6 - - - - SE 30 32 16 17 1011.6 1011.6 -
18/03:30pm 25.9 - - - - ESE 26 30 14 16 1011.6 - -
18/03:00pm 25.7 - - - - ESE 24 28 13 15 1011.6 1011.5 -
18/02:30pm 25.8 - - - - ESE 24 28 13 15 1011.4 - -
18/02:00pm 25.7 - - - - E 22 26 12 14 1011.5 1011.3 -
18/01:30pm 25.5 - - - - ESE 26 33 14 18 1011.9 - -
18/01:00pm 25.7 - - - - ESE 28 33 15 18 1012.0 1011.9 -
18/12:30pm 25.5 - - - - ESE 26 30 14 16 1012.4 - -
18/12:00pm 25.5 - - - - ESE 28 33 15 18 1012.6 1012.5 -
18/11:30am 25.5 - - - - E 28 30 15 16 1012.7 - -
18/11:00am 25.5 - - - - ESE 26 32 14 17 1013.1 1012.9 -
18/10:30am 25.5 - - - - ESE 30 35 16 19 1013.3 - -
18/10:00am 25.6 - - - - ESE 30 35 16 19 1013.5 1013.3 -
18/09:30am 25.6 - - - - ESE 33 37 18 20 1013.3 - -
18/09:00am 25.4 - - - - SE 32 37 17 20 1013.6 1013.4 -
18/08:30am 25.5 - - - - SE 30 35 16 19 1013.5 - -
18/08:00am 25.2 - - - - SE 33 37 18 20 1013.3 1013.3 -
18/07:30am 25.6 - - - - SE 33 37 18 20 1013.1 - -
18/07:00am 24.9 - - - - ESE 33 39 18 21 1012.7 1012.7 -
18/06:30am 25.3 - - - - ESE 33 39 18 21 1012.4 - -
18/06:00am 25.1 - - - - SE 33 - 18 - - 1012.1 -
18/05:00am 24.8 - - - - SE 35 - 19 - - 1011.7 -
18/04:00am 25.0 - - - - SE 32 - 17 - - 1011.5 -
18/03:00am 25.1 - - - - ESE 30 - 16 - - 1011.3 -
18/02:00am 25.0 - - - - ESE 28 - 15 - - 1011.5 -
18/01:00am 24.7 - - - - ESE 28 - 15 - - 1011.8 -
18/12:00am 25.2 - - - - ESE 28 - 15 - - 1012.5 -
 
Date/Time
EST
Temp
°C
App
Temp
°C
Dew
Point
°C
Rel
Hum
%
Delta-T
°C
Wind Press
QNH
hPa
Press
MSL
hPa
Rain since
9am
mm
Dir  Spd
km/h
Gust
km/h
Spd
kts
Gust
kts
17/11:00pm 25.2 - - - - ESE 30 - 16 - - 1013.0 -
17/10:00pm 25.5 - - - - E 28 - 15 - - 1012.9 -
17/09:00pm 25.6 - - - - ESE 30 - 16 - - 1012.6 -
17/08:00pm 25.4 - - - - ESE 26 - 14 - - 1012.1 -
17/07:00pm 25.4 - - - - ESE 26 - 14 - - 1011.7 -
17/06:00pm 25.9 - - - - E 26 - 14 - - 1011.8 -
17/05:00pm 25.7 - - - - ESE 26 - 14 - - 1011.3 -
17/04:00pm 25.8 - - - - SE 22 - 12 - - 1011.1 -
17/03:00pm 25.6 - - - - SSE 22 - 12 - - 1011.3 -
17/02:00pm 25.8 - - - - SSE 22 - 12 - - 1011.8 -
17/01:00pm 25.9 - - - - SSE 20 - 11 - - 1012.1 -
17/12:00pm 25.9 - - - - ESE 20 - 11 - - 1012.8 -
17/11:00am 25.7 - - - - ESE 22 - 12 - - 1013.2 -
17/10:30am 25.8 - - - - ESE 22 28 12 15 1013.6 - -
17/10:00am 25.6 - - - - ESE 24 30 13 16 1013.8 1013.7 -
17/09:30am 25.4 - - - - ESE 24 28 13 15 1013.8 - -
17/09:00am 25.6 - - - - ESE 24 28 13 15 1013.7 1013.7 -
17/08:30am 25.6 - - - - ESE 24 26 13 14 1013.6 - -
17/08:00am 25.2 - - - - E 22 28 12 15 1013.5 1013.4 -
17/07:30am 25.2 - - - - ESE 24 32 13 17 1013.3 - -
17/07:00am 25.3 - - - - ESE 26 30 14 16 1013.2 1013.1 -
17/06:30am 24.9 - - - - ESE 26 32 14 17 1013.0 - -
17/06:00am 25.1 - - - - E 24 32 13 17 1012.6 1012.5 -
17/05:30am 25.1 - - - - E 28 32 15 17 1012.4 - -
17/05:00am 24.8 - - - - E 28 32 15 17 1011.9 1011.9 -
17/04:30am 24.9 - - - - E 28 32 15 17 1011.7 - -
17/04:00am 24.7 - - - - E 30 35 16 19 1011.5 1011.4 -
17/03:30am 24.6 - - - - ESE 30 33 16 18 1011.3 - -
17/03:00am 24.5 - - - - ESE 30 39 16 21 1011.1 1011.1 -
17/02:30am 24.9 - - - - E 33 39 18 21 1011.1 - -
17/02:00am 24.9 - - - - E 33 41 18 22 1011.2 1011.0 -
17/01:30am 24.9 - - - - ESE 33 39 18 21 1011.3 - -
17/01:00am 24.9 - - - - ESE 35 39 19 21 1011.7 1011.6 -
17/12:30am 24.9 - - - - ESE 35 43 19 23 1012.2 - -
17/12:00am 25.3 - - - - SE 32 37 17 20 1012.6 1012.4 -

Other Formats:

Comma delimited format used in spreadsheet applications
http://www.bom.gov.au/fwo/IDQ60801/IDQ60801.94298.axf

JavaScript Object Notation format (JSON) in row-major order
http://www.bom.gov.au/fwo/IDQ60801/IDQ60801.94298.json